Time;durP1;ratioP1;P1;durP2;ratioP2;P2;SDS_P1;SDS_P2;PMS_P1;PMS_P2;Temp;Humidity;BMP_temperature;BMP_pressure;BME280_temperature;BME280_humidity;BME280_pressure;Samples;Min_cycle;Max_cycle;Signal;HPM_P1;HPM_P2
2024/03/13 00:01:19;;;;;;;23.52;11.63;;;8.30;99.90;;;;;;4907873;29;20410;-88
2024/03/13 00:03:48;;;;;;;25.05;12.07;;;8.30;99.90;;;;;;4891652;29;20539;-88
2024/03/13 00:06:16;;;;;;;24.50;12.38;;;8.20;99.90;;;;;;4889296;29;20068;-87
2024/03/13 00:08:46;;;;;;;26.48;12.48;;;8.20;99.90;;;;;;4893459;29;20045;-87
2024/03/13 00:11:15;;;;;;;25.25;11.45;;;8.20;99.90;;;;;;4892296;29;20080;-89
2024/03/13 00:13:47;;;;;;;26.58;12.43;;;8.20;99.90;;;;;;4897727;29;20052;-87
2024/03/13 00:16:19;;;;;;;33.45;14.18;;;8.20;99.90;;;;;;4907349;29;20068;-87
2024/03/13 00:18:49;;;;;;;29.27;12.35;;;8.10;99.90;;;;;;4892806;29;20552;-86
2024/03/13 00:21:18;;;;;;;23.73;12.32;;;8.10;99.90;;;;;;4892397;29;20136;-86
2024/03/13 00:23:52;;;;;;;23.90;12.18;;;8.10;99.90;;;;;;4897884;29;20104;-83
2024/03/13 00:26:24;;;;;;;25.27;13.35;;;8.10;99.90;;;;;;4897577;29;20080;-84
2024/03/13 00:28:54;;;;;;;26.35;12.63;;;8.10;99.90;;;;;;4907420;29;20060;-83
2024/03/13 00:31:27;;;;;;;24.67;11.77;;;8.10;99.90;;;;;;4881503;29;20049;-83
2024/03/13 00:33:57;;;;;;;27.08;12.68;;;8.10;99.90;;;;;;4889890;29;20049;-83
2024/03/13 00:36:32;;;;;;;27.05;13.20;;;8.10;99.90;;;;;;4885520;29;20100;-84
2024/03/13 00:39:03;;;;;;;28.48;13.10;;;8.10;99.90;;;;;;4895024;29;20131;-84
2024/03/13 00:41:40;;;;;;;23.75;11.90;;;8.10;99.90;;;;;;4891437;29;20092;-83
2024/03/13 00:44:10;;;;;;;26.80;13.80;;;8.10;99.90;;;;;;4898444;29;20576;-84
2024/03/13 00:46:40;;;;;;;26.60;12.93;;;8.30;99.90;;;;;;4894326;29;20125;-83
2024/03/13 00:49:14;;;;;;;22.20;11.55;;;8.20;99.90;;;;;;4890007;29;20045;-83
2024/03/13 00:51:49;;;;;;;25.63;12.80;;;8.20;99.90;;;;;;4893705;29;20033;-84
2024/03/13 00:54:20;;;;;;;22.58;11.73;;;8.20;99.90;;;;;;4896010;29;20052;-83
2024/03/13 00:56:49;;;;;;;25.10;12.15;;;8.20;99.90;;;;;;4909742;29;20076;-84
2024/03/13 00:59:19;;;;;;;24.05;12.05;;;8.20;99.90;;;;;;4903518;29;20052;-85
2024/03/13 01:01:52;;;;;;;23.77;12.85;;;8.20;99.90;;;;;;4895129;29;20092;-85
2024/03/13 01:04:21;;;;;;;24.92;11.65;;;8.30;99.90;;;;;;4905924;29;20081;-83
2024/03/13 01:06:51;;;;;;;28.17;13.07;;;8.30;99.90;;;;;;4893477;29;20572;-84
2024/03/13 01:09:24;;;;;;;23.40;11.02;;;8.30;99.90;;;;;;4888414;29;20497;-83
2024/03/13 01:11:54;;;;;;;25.20;11.98;;;8.30;99.90;;;;;;4894451;29;20052;-83
2024/03/13 01:14:24;;;;;;;25.23;11.85;;;8.30;99.90;;;;;;4900667;29;20053;-85
2024/03/13 01:16:55;;;;;;;20.63;11.25;;;8.30;99.90;;;;;;4903025;29;20488;-83
2024/03/13 01:19:30;;;;;;;24.17;11.60;;;8.30;99.90;;;;;;4862255;29;20052;-84
2024/03/13 01:22:05;;;;;;;23.10;11.10;;;8.40;99.90;;;;;;4896201;29;20396;-85
2024/03/13 01:24:38;;;;;;;20.88;10.57;;;8.40;99.90;;;;;;4889331;29;20044;-84
2024/03/13 01:27:22;;;;;;;22.95;11.30;;;8.50;99.90;;;;;;4913057;29;20469;-79
2024/03/13 01:29:51;;;;;;;21.10;10.90;;;8.50;99.90;;;;;;4910131;29;20088;-82
2024/03/13 01:32:20;;;;;;;21.33;9.88;;;8.50;99.90;;;;;;4893768;29;20131;-84
2024/03/13 01:34:51;;;;;;;19.87;9.97;;;8.50;99.90;;;;;;4905360;29;20056;-88
2024/03/13 01:40:16;;;;;;;23.52;10.30;;;8.50;99.90;;;;;;4902474;29;20529;-88
2024/03/13 01:55:06;;;;;;;18.95;9.05;;;8.50;99.90;;;;;;4890978;29;20128;-87
2024/03/13 01:57:56;;;;;;;16.25;8.73;;;8.50;99.90;;;;;;4899620;29;20711;-87
2024/03/13 02:03:40;;;;;;;17.60;9.30;;;8.50;99.90;;;;;;4890183;29;20064;-87
2024/03/13 02:06:08;;;;;;;19.20;9.52;;;8.50;99.90;;;;;;4888058;29;20045;-84
2024/03/13 02:08:40;;;;;;;18.90;10.18;;;8.50;99.90;;;;;;4904340;29;20048;-78
2024/03/13 02:11:11;;;;;;;16.92;9.10;;;8.50;99.90;;;;;;4905737;29;20059;-84
2024/03/13 02:13:42;;;;;;;17.38;9.20;;;8.50;99.90;;;;;;4901809;29;20057;-85
2024/03/13 02:16:11;;;;;;;18.55;8.73;;;8.50;99.90;;;;;;4890743;29;20052;-85
2024/03/13 02:18:39;;;;;;;21.00;11.15;;;8.50;99.90;;;;;;4907719;29;20048;-86
2024/03/13 02:21:08;;;;;;;19.45;11.30;;;8.50;99.90;;;;;;4907210;29;20144;-85
2024/03/13 02:23:39;;;;;;;17.23;9.65;;;8.50;99.90;;;;;;4891027;29;20136;-87
2024/03/13 02:26:07;;;;;;;15.32;7.65;;;8.50;99.90;;;;;;4861540;29;20045;-84
2024/03/13 02:28:37;;;;;;;20.25;9.25;;;8.50;99.90;;;;;;4856900;29;20591;-83
2024/03/13 02:31:06;;;;;;;18.27;8.77;;;8.40;99.90;;;;;;4876650;29;20511;-85
2024/03/13 02:33:37;;;;;;;17.38;10.93;;;8.50;99.90;;;;;;4874931;29;20045;-83
2024/03/13 02:36:06;;;;;;;19.23;8.80;;;8.40;99.90;;;;;;4877935;29;20132;-88
2024/03/13 02:38:34;;;;;;;19.33;9.30;;;8.40;99.90;;;;;;4868719;29;20037;-88
2024/03/13 02:41:03;;;;;;;21.17;11.32;;;8.40;99.90;;;;;;4887844;29;20045;-84
2024/03/13 02:43:36;;;;;;;18.33;9.82;;;8.40;99.90;;;;;;4870768;29;20049;-86
2024/03/13 02:46:05;;;;;;;17.13;9.35;;;8.40;99.90;;;;;;4842505;29;20146;-87
2024/03/13 02:48:39;;;;;;;18.33;8.93;;;8.40;99.90;;;;;;4822705;29;20050;-84
2024/03/13 02:51:09;;;;;;;18.88;9.13;;;8.40;99.90;;;;;;4843151;29;20109;-86
2024/03/13 02:53:40;;;;;;;17.08;8.38;;;8.40;99.90;;;;;;4853867;29;20120;-85
2024/03/13 02:56:08;;;;;;;18.38;8.93;;;8.40;99.90;;;;;;4843061;29;20085;-85
2024/03/13 02:58:38;;;;;;;17.45;9.02;;;8.40;99.90;;;;;;4843392;29;20132;-86
2024/03/13 03:01:07;;;;;;;19.95;8.88;;;8.40;99.90;;;;;;4852519;29;20060;-87
2024/03/13 03:03:36;;;;;;;18.17;9.57;;;8.30;99.90;;;;;;4843758;29;20153;-87
2024/03/13 03:06:10;;;;;;;18.15;8.90;;;8.30;99.90;;;;;;4823023;29;20049;-86
2024/03/13 03:08:43;;;;;;;18.05;8.80;;;8.40;99.90;;;;;;4842931;29;20117;-87
2024/03/13 03:11:12;;;;;;;19.98;8.20;;;8.40;99.90;;;;;;4834180;29;20047;-86
2024/03/13 03:13:41;;;;;;;17.17;8.27;;;8.40;99.90;;;;;;4825184;29;20053;-87
2024/03/13 03:16:09;;;;;;;17.90;8.80;;;8.30;99.90;;;;;;4833610;29;20053;-87
2024/03/13 03:18:38;;;;;;;17.38;7.82;;;8.40;99.90;;;;;;4860082;29;20057;-86
2024/03/13 03:21:08;;;;;;;17.67;8.73;;;8.40;99.90;;;;;;4893576;29;20076;-85
2024/03/13 03:23:36;;;;;;;17.48;9.10;;;8.30;99.90;;;;;;4875272;29;20416;-86
2024/03/13 03:26:05;;;;;;;18.95;9.25;;;8.30;99.90;;;;;;4859228;29;20500;-87
2024/03/13 03:28:37;;;;;;;16.52;7.82;;;8.30;99.90;;;;;;4859016;29;20073;-87
2024/03/13 03:31:10;;;;;;;20.85;9.57;;;8.30;99.90;;;;;;4879660;29;20044;-86
2024/03/13 03:33:39;;;;;;;18.55;9.85;;;8.30;99.90;;;;;;4859557;29;20063;-85
2024/03/13 03:36:08;;;;;;;18.48;9.60;;;8.20;99.90;;;;;;4879449;29;20045;-86
2024/03/13 03:38:39;;;;;;;18.25;9.23;;;8.20;99.90;;;;;;4859530;29;20108;-87
2024/03/13 03:41:08;;;;;;;24.70;10.90;;;8.20;99.90;;;;;;4859386;29;20572;-87
2024/03/13 03:43:39;;;;;;;17.27;8.65;;;8.20;99.90;;;;;;4875311;29;20096;-86
2024/03/13 03:46:14;;;;;;;21.80;9.25;;;8.10;99.90;;;;;;4888930;29;20446;-86
2024/03/13 03:48:45;;;;;;;19.02;7.57;;;8.10;99.90;;;;;;4883036;29;20068;-85
2024/03/13 03:51:16;;;;;;;17.50;8.13;;;8.10;99.90;;;;;;4880925;29;20048;-86
2024/03/13 03:53:46;;;;;;;19.87;9.50;;;8.10;99.90;;;;;;4877303;29;20045;-86
2024/03/13 03:56:16;;;;;;;19.48;9.93;;;8.10;99.90;;;;;;4864888;29;20060;-85
2024/03/13 03:58:45;;;;;;;19.10;8.93;;;8.10;99.90;;;;;;4875104;29;20056;-86
2024/03/13 04:01:14;;;;;;;18.90;8.45;;;8.10;99.90;;;;;;4875539;29;20064;-86
2024/03/13 04:03:43;;;;;;;18.80;9.27;;;8.10;99.90;;;;;;4892773;29;20052;-86
2024/03/13 04:06:17;;;;;;;18.48;9.05;;;8.10;99.90;;;;;;4886853;29;20059;-87
2024/03/13 04:08:46;;;;;;;19.55;9.88;;;8.10;99.90;;;;;;4879388;29;20147;-85
2024/03/13 04:11:16;;;;;;;22.67;10.10;;;8.10;99.90;;;;;;4876873;29;20051;-86
2024/03/13 04:13:47;;;;;;;16.63;8.05;;;8.10;99.90;;;;;;4879604;29;20483;-85
2024/03/13 04:16:20;;;;;;;19.70;8.93;;;8.20;99.90;;;;;;4873119;29;20151;-85
2024/03/13 04:18:52;;;;;;;20.75;8.98;;;8.20;99.90;;;;;;4866112;29;20108;-85
2024/03/13 04:21:21;;;;;;;18.70;9.93;;;8.20;99.90;;;;;;4865886;29;20497;-84
2024/03/13 04:23:50;;;;;;;19.65;10.05;;;8.20;99.90;;;;;;4858584;29;20461;-86
2024/03/13 04:26:19;;;;;;;20.33;9.48;;;8.20;99.90;;;;;;4864315;29;20064;-84
2024/03/13 04:28:47;;;;;;;16.75;8.63;;;8.20;99.90;;;;;;4866627;29;20057;-85
2024/03/13 04:31:17;;;;;;;18.02;9.88;;;8.30;99.90;;;;;;4880851;29;20048;-87
2024/03/13 04:33:48;;;;;;;18.38;8.75;;;8.20;99.90;;;;;;4878043;29;20109;-85
2024/03/13 04:36:17;;;;;;;18.95;8.70;;;8.20;99.90;;;;;;4878839;29;20044;-87
2024/03/13 04:38:50;;;;;;;15.85;7.57;;;8.20;99.90;;;;;;4896692;29;20592;-85
2024/03/13 04:41:19;;;;;;;20.02;9.00;;;8.20;99.90;;;;;;4863193;29;20416;-86
2024/03/13 04:43:49;;;;;;;21.35;10.38;;;8.20;99.90;;;;;;4895747;29;20382;-85
2024/03/13 04:46:21;;;;;;;19.67;10.18;;;8.20;99.90;;;;;;4867819;29;20574;-84
2024/03/13 04:48:52;;;;;;;19.10;8.50;;;8.20;99.90;;;;;;4867027;29;20050;-86
2024/03/13 04:51:22;;;;;;;18.50;8.75;;;8.20;99.90;;;;;;4879242;29;20578;-86
2024/03/13 04:53:52;;;;;;;17.77;8.75;;;8.20;99.90;;;;;;4881855;29;20428;-86
2024/03/13 04:56:25;;;;;;;18.27;7.97;;;8.20;99.90;;;;;;4879953;29;21812;-87
2024/03/13 04:58:57;;;;;;;21.88;10.35;;;8.20;99.90;;;;;;4893524;29;20132;-86
2024/03/13 05:01:26;;;;;;;19.10;9.95;;;8.20;99.90;;;;;;4863356;29;20562;-86
2024/03/13 05:03:56;;;;;;;19.17;8.80;;;8.20;99.90;;;;;;4891427;29;20146;-86
2024/03/13 05:06:26;;;;;;;17.83;8.38;;;8.20;99.90;;;;;;4844050;29;20143;-86
2024/03/13 05:08:54;;;;;;;22.67;9.35;;;8.20;99.90;;;;;;4889434;29;20140;-86
2024/03/13 05:11:24;;;;;;;19.23;8.73;;;8.20;99.90;;;;;;4873165;29;20052;-87
2024/03/13 05:13:55;;;;;;;18.27;8.73;;;8.20;99.90;;;;;;4875202;29;20048;-85
2024/03/13 05:16:25;;;;;;;19.02;8.48;;;8.20;99.90;;;;;;4858953;29;20090;-85
2024/03/13 05:18:53;;;;;;;19.27;9.07;;;8.20;99.90;;;;;;4861882;29;20071;-86
2024/03/13 05:21:26;;;;;;;18.00;9.20;;;8.30;99.90;;;;;;4886908;29;20052;-81
2024/03/13 05:23:55;;;;;;;19.38;8.35;;;8.30;99.90;;;;;;4875201;29;20128;-86
2024/03/13 05:26:24;;;;;;;19.75;9.05;;;8.40;99.90;;;;;;4874247;29;20500;-84
2024/03/13 05:28:54;;;;;;;18.60;9.40;;;8.40;99.90;;;;;;4858763;29;20139;-86
2024/03/13 05:31:23;;;;;;;16.30;8.07;;;8.40;99.90;;;;;;4890855;29;20577;-84
2024/03/13 05:33:51;;;;;;;19.60;8.48;;;8.40;99.90;;;;;;4873809;29;20071;-86
2024/03/13 05:36:20;;;;;;;19.10;8.90;;;8.40;99.90;;;;;;4875607;29;20053;-85
2024/03/13 05:38:49;;;;;;;17.27;9.20;;;8.40;99.90;;;;;;4862278;29;20414;-85
2024/03/13 05:41:19;;;;;;;19.58;9.27;;;8.40;99.90;;;;;;4860186;29;20112;-86
2024/03/13 05:43:50;;;;;;;19.60;9.77;;;8.40;99.90;;;;;;4872801;29;20569;-87
2024/03/13 05:46:19;;;;;;;18.13;8.80;;;8.40;99.90;;;;;;4873802;29;20104;-86
2024/03/13 05:48:47;;;;;;;18.52;9.43;;;8.50;99.90;;;;;;4889084;29;20053;-89
2024/03/13 05:51:16;;;;;;;17.50;9.07;;;8.50;99.90;;;;;;4871377;29;20049;-86
2024/03/13 05:53:45;;;;;;;18.63;9.15;;;8.60;99.90;;;;;;4871641;29;20044;-85
2024/03/13 05:56:13;;;;;;;17.58;9.30;;;8.60;99.90;;;;;;4860611;29;20040;-87
2024/03/13 05:58:42;;;;;;;17.10;8.15;;;8.60;99.90;;;;;;4858616;29;20516;-88
2024/03/13 06:01:14;;;;;;;16.95;8.57;;;8.70;99.90;;;;;;4871782;29;20716;-87
2024/03/13 06:03:43;;;;;;;18.48;9.30;;;8.70;99.90;;;;;;4857353;29;20140;-85
2024/03/13 06:06:12;;;;;;;17.25;9.43;;;8.70;99.90;;;;;;4873783;29;20198;-88
2024/03/13 06:08:41;;;;;;;20.15;8.88;;;8.80;99.90;;;;;;4854593;29;20152;-86
2024/03/13 06:11:09;;;;;;;17.35;9.40;;;8.80;99.90;;;;;;4859293;29;20525;-86
2024/03/13 06:13:38;;;;;;;15.93;8.52;;;8.80;99.90;;;;;;4872586;29;20068;-87
2024/03/13 06:16:09;;;;;;;19.38;9.52;;;8.80;99.90;;;;;;4875947;29;20064;-88
2024/03/13 06:18:38;;;;;;;16.92;8.50;;;8.80;99.90;;;;;;4870434;29;20144;-86
2024/03/13 06:21:07;;;;;;;18.85;9.27;;;8.80;99.90;;;;;;4875989;29;20057;-87
2024/03/13 06:23:36;;;;;;;16.17;8.10;;;8.90;99.90;;;;;;4874421;29;20172;-87
2024/03/13 06:26:07;;;;;;;18.35;8.52;;;8.90;99.90;;;;;;4869996;29;20072;-87
2024/03/13 06:31:23;;;;;;;16.42;7.85;;;8.90;99.90;;;;;;4864027;29;20525;-88
2024/03/13 06:33:52;;;;;;;17.35;8.32;;;9.00;99.90;;;;;;4875207;29;20583;-87
2024/03/13 06:36:20;;;;;;;16.60;8.00;;;9.00;99.90;;;;;;4861471;29;20067;-88
2024/03/13 06:38:50;;;;;;;16.40;8.68;;;9.10;99.90;;;;;;4896236;29;20056;-88
2024/03/13 06:41:18;;;;;;;18.92;8.88;;;9.10;99.90;;;;;;4862838;29;20446;-87
2024/03/13 06:43:47;;;;;;;19.30;10.13;;;9.20;99.90;;;;;;4876584;29;20100;-86
2024/03/13 06:46:15;;;;;;;17.25;7.60;;;9.20;99.90;;;;;;4893446;29;20064;-87
2024/03/13 06:48:44;;;;;;;15.65;8.30;;;9.30;99.90;;;;;;4874008;29;20556;-89
2024/03/13 06:51:13;;;;;;;16.02;8.50;;;9.30;99.90;;;;;;4860525;29;20274;-90
2024/03/13 06:53:41;;;;;;;14.93;7.55;;;9.30;99.90;;;;;;4875565;29;20497;-87
2024/03/13 06:56:11;;;;;;;17.50;8.80;;;9.30;99.90;;;;;;4873163;29;20049;-86
2024/03/13 06:58:39;;;;;;;15.95;8.23;;;9.30;99.90;;;;;;4872390;29;20048;-87
2024/03/13 07:01:12;;;;;;;17.65;8.68;;;9.30;99.90;;;;;;4858252;29;20528;-86
2024/03/13 07:03:42;;;;;;;19.20;9.32;;;9.30;99.90;;;;;;4874770;29;20611;-87
2024/03/13 07:06:11;;;;;;;16.77;8.82;;;9.30;99.90;;;;;;4872700;29;20135;-85
2024/03/13 07:08:40;;;;;;;16.60;8.68;;;9.30;99.90;;;;;;4858140;29;20064;-87
2024/03/13 07:11:09;;;;;;;16.80;8.55;;;9.50;99.90;;;;;;4873808;29;20057;-87
2024/03/13 07:13:37;;;;;;;15.93;8.10;;;9.60;99.90;;;;;;4874043;29;20045;-85
2024/03/13 07:16:06;;;;;;;15.88;9.02;;;9.80;99.90;;;;;;4873632;29;20052;-87
2024/03/13 07:18:35;;;;;;;16.30;9.63;;;9.90;99.90;;;;;;4873344;29;20492;-86
2024/03/13 07:21:04;;;;;;;15.73;8.50;;;10.10;99.90;;;;;;4875203;29;20045;-89
2024/03/13 07:23:33;;;;;;;16.75;8.40;;;10.10;99.90;;;;;;4876224;29;20139;-87
2024/03/13 07:26:04;;;;;;;15.18;7.95;;;10.20;99.90;;;;;;4872074;29;20045;-88
2024/03/13 07:28:33;;;;;;;17.83;8.05;;;10.20;99.90;;;;;;4873697;29;20063;-86
2024/03/13 07:31:02;;;;;;;14.45;7.57;;;10.20;99.90;;;;;;4874154;29;20057;-88
2024/03/13 07:33:31;;;;;;;11.82;7.03;;;10.30;99.90;;;;;;4876425;29;20048;-87
2024/03/13 07:35:59;;;;;;;12.68;7.47;;;10.20;99.90;;;;;;4872131;29;20040;-86
2024/03/13 07:38:28;;;;;;;13.65;7.25;;;10.20;99.90;;;;;;4878963;29;20079;-88
2024/03/13 07:40:57;;;;;;;13.80;7.10;;;10.20;99.90;;;;;;4887927;29;20455;-88
2024/03/13 07:43:25;;;;;;;13.23;6.40;;;10.20;99.90;;;;;;4876717;29;20558;-88
2024/03/13 07:45:55;;;;;;;18.00;7.90;;;10.30;99.90;;;;;;4858569;29;20040;-88
2024/03/13 07:48:24;;;;;;;14.98;7.00;;;10.40;99.90;;;;;;4871148;29;20409;-87
2024/03/13 07:50:52;;;;;;;11.75;5.80;;;10.40;99.90;;;;;;4874579;29;20492;-89
2024/03/13 07:53:21;;;;;;;11.32;6.35;;;10.40;99.90;;;;;;4861476;29;20132;-88
2024/03/13 07:55:50;;;;;;;11.63;5.93;;;10.50;99.90;;;;;;4869424;29;20128;-85
2024/03/13 07:58:18;;;;;;;11.82;5.97;;;10.50;99.90;;;;;;4884582;29;21210;-86
2024/03/13 08:00:47;;;;;;;9.35;5.47;;;10.50;99.90;;;;;;4873048;29;20101;-86
2024/03/13 08:03:16;;;;;;;10.43;5.30;;;10.60;99.90;;;;;;4870614;29;20527;-86
2024/03/13 08:05:47;;;;;;;11.40;5.25;;;10.70;99.90;;;;;;4874075;29;20123;-85
2024/03/13 08:08:16;;;;;;;12.68;5.95;;;10.80;99.90;;;;;;4873639;29;20512;-86
2024/03/13 08:11:02;;;;;;;10.40;5.40;;;10.80;99.90;;;;;;4875446;29;20142;-84
2024/03/13 08:13:49;;;;;;;9.77;5.45;;;10.90;99.90;;;;;;4872628;29;20044;-87
2024/03/13 08:16:35;;;;;;;12.77;6.35;;;11.00;99.90;;;;;;4862712;29;20052;-83
2024/03/13 08:19:22;;;;;;;12.52;5.85;;;11.00;99.90;;;;;;4874969;29;20061;-86
2024/03/13 08:22:08;;;;;;;11.25;6.75;;;11.00;99.90;;;;;;4864743;29;20080;-87
2024/03/13 08:24:54;;;;;;;12.38;6.10;;;11.10;99.90;;;;;;4876486;29;20100;-87
2024/03/13 08:27:40;;;;;;;11.25;5.80;;;11.20;99.90;;;;;;4877895;29;20051;-89
2024/03/13 08:30:26;;;;;;;13.50;6.32;;;11.20;99.90;;;;;;4870172;29;20515;-86
2024/03/13 08:33:15;;;;;;;12.45;6.35;;;11.20;99.90;;;;;;4874589;29;20060;-84
2024/03/13 08:36:02;;;;;;;12.05;6.70;;;11.20;99.90;;;;;;4881451;29;20045;-86
2024/03/13 08:38:48;;;;;;;11.98;6.55;;;11.30;99.90;;;;;;4875799;29;20153;-86
2024/03/13 08:41:34;;;;;;;11.43;5.93;;;11.40;99.90;;;;;;4891024;29;20052;-84
2024/03/13 08:44:20;;;;;;;11.35;6.20;;;11.40;99.90;;;;;;4871253;29;20044;-86
2024/03/13 08:47:07;;;;;;;13.18;6.88;;;11.40;99.90;;;;;;4871996;29;20421;-81
2024/03/13 08:49:53;;;;;;;13.38;6.28;;;11.50;99.90;;;;;;4880579;29;20518;-85
2024/03/13 08:52:39;;;;;;;12.35;6.47;;;11.50;99.90;;;;;;4860155;29;20059;-85
2024/03/13 08:55:25;;;;;;;11.15;5.90;;;11.60;99.90;;;;;;4878670;29;20048;-85
2024/03/13 08:58:11;;;;;;;12.85;6.63;;;11.60;99.90;;;;;;4859983;29;20056;-83
2024/03/13 09:00:57;;;;;;;13.15;6.30;;;11.60;99.90;;;;;;4874434;29;20140;-84
2024/03/13 09:03:43;;;;;;;10.88;5.70;;;11.70;99.90;;;;;;4874633;29;20143;-85
2024/03/13 09:06:30;;;;;;;12.45;6.18;;;11.80;99.90;;;;;;4875098;29;20049;-84
2024/03/13 09:08:59;;;;;;;12.00;5.50;;;11.80;99.90;;;;;;4869129;29;20072;-84
2024/03/13 09:11:28;;;;;;;12.43;6.38;;;11.80;99.90;;;;;;4872531;29;20117;-84
2024/03/13 09:14:01;;;;;;;11.20;5.90;;;11.90;99.90;;;;;;4873600;29;20378;-84
2024/03/13 09:16:31;;;;;;;10.40;5.60;;;12.00;99.90;;;;;;4884000;29;20065;-84
2024/03/13 09:18:59;;;;;;;10.48;6.45;;;12.00;99.90;;;;;;4871381;29;20060;-84
2024/03/13 09:21:28;;;;;;;11.75;6.00;;;12.10;99.90;;;;;;4875677;29;20041;-85
2024/03/13 09:23:57;;;;;;;10.77;5.47;;;12.20;99.90;;;;;;4868987;29;20493;-84
2024/03/13 09:26:27;;;;;;;11.90;5.90;;;12.20;99.90;;;;;;4852539;29;20604;-84
2024/03/13 09:28:56;;;;;;;10.82;5.38;;;12.20;99.90;;;;;;4869761;29;20526;-85
2024/03/13 09:31:25;;;;;;;9.98;5.30;;;12.30;99.90;;;;;;4868724;29;20091;-84
2024/03/13 09:33:53;;;;;;;11.27;5.82;;;12.20;99.90;;;;;;4887988;29;20052;-83
2024/03/13 09:36:22;;;;;;;11.35;6.15;;;12.20;99.90;;;;;;4860955;29;20489;-84
2024/03/13 09:38:51;;;;;;;12.20;6.15;;;12.30;99.90;;;;;;4870192;29;20044;-83
2024/03/13 09:41:19;;;;;;;12.38;5.40;;;12.40;99.90;;;;;;4860802;29;20049;-84
2024/03/13 09:43:48;;;;;;;13.60;6.00;;;12.40;99.90;;;;;;4859478;29;20097;-85
2024/03/13 09:46:16;;;;;;;10.80;5.32;;;12.50;99.90;;;;;;4871305;29;20063;-84
2024/03/13 09:48:45;;;;;;;12.85;6.28;;;12.50;99.90;;;;;;4869192;29;20068;-84
2024/03/13 09:51:14;;;;;;;11.90;6.13;;;12.60;99.90;;;;;;4865793;29;20144;-85
2024/03/13 09:53:42;;;;;;;13.30;6.60;;;12.70;99.90;;;;;;4859555;29;20465;-85
2024/03/13 09:56:13;;;;;;;12.02;6.93;;;12.60;99.90;;;;;;4882505;29;20097;-84
2024/03/13 09:58:45;;;;;;;11.83;6.30;;;12.60;99.90;;;;;;4867852;29;20412;-84
2024/03/13 10:01:14;;;;;;;13.32;6.95;;;12.50;99.90;;;;;;4870728;29;20056;-84
2024/03/13 10:03:44;;;;;;;12.80;6.72;;;12.60;99.90;;;;;;4873902;29;20108;-84
2024/03/13 10:06:13;;;;;;;13.55;6.15;;;12.60;99.90;;;;;;4859965;29;20496;-84
2024/03/13 10:08:42;;;;;;;10.10;4.95;;;12.70;99.90;;;;;;4887283;29;20048;-84
2024/03/13 10:11:14;;;;;;;10.40;4.80;;;12.70;99.90;;;;;;4851251;29;20117;-83
2024/03/13 10:13:43;;;;;;;11.10;5.03;;;12.70;99.90;;;;;;4873013;29;20544;-83
2024/03/13 10:17:46;;;;;;;12.13;6.43;;;12.80;99.90;;;;;;5132083;27;20827;-84
2024/03/13 10:20:16;;;;;;;11.63;6.15;;;12.80;99.90;;;;;;5100191;28;20082;-84
2024/03/13 10:22:45;;;;;;;11.55;6.57;;;12.80;99.90;;;;;;5104427;28;20055;-85
2024/03/13 10:25:15;;;;;;;11.98;6.22;;;12.80;99.90;;;;;;5104195;27;20039;-85
2024/03/13 10:27:43;;;;;;;13.10;6.63;;;12.80;99.90;;;;;;5098233;28;20077;-85
2024/03/13 10:30:12;;;;;;;9.93;5.78;;;12.80;99.90;;;;;;5098895;27;20048;-84
2024/03/13 10:32:41;;;;;;;14.43;6.65;;;12.80;99.90;;;;;;5100399;27;20039;-84
2024/03/13 10:35:11;;;;;;;10.93;5.65;;;12.80;99.90;;;;;;5088828;28;20054;-84
2024/03/13 10:37:41;;;;;;;13.55;5.93;;;12.90;99.90;;;;;;5106502;28;20620;-84
2024/03/13 10:40:14;;;;;;;11.35;6.53;;;13.00;99.90;;;;;;5107623;28;20048;-84
2024/03/13 10:42:43;;;;;;;;;;;12.90;99.90;;;;;;5114984;27;20189;-84
2024/03/13 10:45:12;;;;;;;12.25;5.03;;;13.00;99.90;;;;;;5118646;27;19926;-83
2024/03/13 10:47:42;;;;;;;9.23;4.40;;;13.00;99.90;;;;;;5104776;27;20130;-83
2024/03/13 10:50:11;;;;;;;10.48;5.07;;;13.00;99.90;;;;;;5120372;27;20039;-84
2024/03/13 10:52:40;;;;;;;10.23;5.93;;;13.00;99.90;;;;;;5115428;28;20044;-84
2024/03/13 10:55:09;;;;;;;13.32;6.22;;;13.10;99.90;;;;;;5098873;28;20130;-85
2024/03/13 10:57:38;;;;;;;14.43;6.60;;;13.10;99.90;;;;;;5101625;28;20111;-84
2024/03/13 11:00:11;;;;;;;14.15;6.60;;;13.20;99.90;;;;;;5093169;28;20051;-84
2024/03/13 11:02:40;;;;;;;9.90;5.80;;;13.20;99.90;;;;;;5100823;28;20052;-84
2024/03/13 11:05:10;;;;;;;10.77;6.18;;;13.40;99.90;;;;;;5104253;27;20040;-84
2024/03/13 11:07:39;;;;;;;9.77;4.60;;;13.50;99.90;;;;;;5102555;28;20501;-83
2024/03/13 11:10:09;;;;;;;10.77;6.22;;;13.60;99.90;;;;;;5090447;28;20589;-83
2024/03/13 11:12:38;;;;;;;13.10;5.28;;;13.80;99.60;;;;;;5097605;28;20052;-83
2024/03/13 11:15:07;;;;;;;13.18;6.70;;;14.00;99.50;;;;;;5100738;28;20047;-83
2024/03/13 11:17:35;;;;;;;10.30;5.60;;;14.00;98.80;;;;;;5114625;27;20434;-81
2024/03/13 11:20:06;;;;;;;12.48;5.55;;;13.90;98.20;;;;;;5085554;28;20048;-84
2024/03/13 11:22:35;;;;;;;49.00;22.27;;;13.70;98.90;;;;;;5120745;27;20052;-83
2024/03/13 11:25:06;;;;;;;13.98;5.95;;;13.90;99.40;;;;;;5103322;28;20039;-84
2024/03/13 11:27:35;;;;;;;12.45;5.72;;;14.00;99.00;;;;;;5096061;27;20051;-80
2024/03/13 11:30:05;;;;;;;9.93;4.90;;;13.90;98.30;;;;;;5100637;28;20043;-79
2024/03/13 11:32:35;;;;;;;11.23;5.55;;;14.00;98.60;;;;;;5106119;27;20126;-84
2024/03/13 11:35:05;;;;;;;9.20;4.72;;;13.80;97.60;;;;;;5098880;27;20118;-82
2024/03/13 11:37:34;;;;;;;11.93;6.40;;;13.80;98.40;;;;;;5073597;28;20523;-84
2024/03/13 11:40:03;;;;;;;13.00;6.70;;;13.70;98.20;;;;;;5077557;28;20068;-83
2024/03/13 11:42:31;;;;;;;11.05;5.13;;;13.70;98.30;;;;;;5096229;28;20076;-83
2024/03/13 11:45:15;;;;;;;12.93;7.05;;;13.70;98.60;;;;;;5086127;28;20437;-83
2024/03/13 11:47:48;;;;;;;15.13;9.23;;;13.70;98.30;;;;;;5076065;28;20314;-82
2024/03/13 11:50:18;;;;;;;10.93;6.18;;;13.70;98.40;;;;;;5075557;28;20341;-83
2024/03/13 11:53:08;;;;;;;17.00;8.32;;;13.60;98.20;;;;;;5101078;27;20077;-83
2024/03/13 11:55:37;;;;;;;20.50;8.48;;;13.80;98.30;;;;;;5088546;28;20047;-82
2024/03/13 11:58:07;;;;;;;14.02;7.35;;;13.80;97.60;;;;;;5082322;28;20083;-82
2024/03/13 12:00:36;;;;;;;20.30;9.38;;;13.80;97.30;;;;;;5073828;28;20470;-81
2024/03/13 12:03:04;;;;;;;39.28;12.25;;;13.90;98.40;;;;;;5101556;28;20050;-82
2024/03/13 12:05:34;;;;;;;19.33;8.82;;;13.90;97.90;;;;;;5087822;28;20046;-80
2024/03/13 12:08:04;;;;;;;19.42;8.02;;;13.90;98.00;;;;;;5093223;28;20380;-80
2024/03/13 12:10:32;;;;;;;15.45;7.57;;;13.80;97.90;;;;;;5086913;28;20046;-79
2024/03/13 12:13:01;;;;;;;17.58;7.82;;;14.00;98.10;;;;;;5084529;28;20073;-81
2024/03/13 12:15:31;;;;;;;11.88;6.10;;;14.00;97.90;;;;;;5100390;27;20035;-81
2024/03/13 12:18:04;;;;;;;18.50;9.25;;;14.00;96.90;;;;;;5082164;28;20135;-82
2024/03/13 12:20:36;;;;;;;11.20;5.60;;;13.90;97.20;;;;;;5077084;28;20071;-79
2024/03/13 12:23:05;;;;;;;7.93;4.20;;;13.90;97.00;;;;;;5085690;28;20093;-83
2024/03/13 12:25:34;;;;;;;13.32;6.40;;;13.80;97.00;;;;;;5085074;28;20071;-83
2024/03/13 12:28:03;;;;;;;13.65;6.60;;;13.80;97.20;;;;;;5083896;28;20032;-81
2024/03/13 12:30:31;;;;;;;10.65;5.47;;;13.70;96.90;;;;;;5071829;27;20051;-79
2024/03/13 12:33:01;;;;;;;10.02;4.80;;;13.80;97.20;;;;;;5078780;28;20051;-82
2024/03/13 12:35:32;;;;;;;11.50;4.97;;;13.80;97.00;;;;;;5099230;27;20550;-83
2024/03/13 12:38:01;;;;;;;11.40;5.45;;;13.70;96.90;;;;;;5102964;28;20043;-82
2024/03/13 12:40:30;;;;;;;6.97;3.67;;;13.70;96.90;;;;;;5087872;28;20074;-79
2024/03/13 12:43:00;;;;;;;7.07;3.40;;;13.80;96.70;;;;;;5084024;28;20449;-79
2024/03/13 12:45:29;;;;;;;8.95;5.25;;;13.80;96.50;;;;;;5086883;28;20044;-82
2024/03/13 12:47:57;;;;;;;11.70;5.40;;;13.80;96.50;;;;;;5079112;28;20035;-80
2024/03/13 12:50:26;;;;;;;12.43;6.57;;;13.80;96.70;;;;;;5083048;27;20283;-81
2024/03/13 12:52:54;;;;;;;11.88;6.20;;;13.70;96.50;;;;;;5091174;27;20044;-80
2024/03/13 12:55:23;;;;;;;12.07;6.72;;;13.70;96.20;;;;;;5063780;28;20425;-80
2024/03/13 12:57:52;;;;;;;15.35;8.43;;;13.70;96.90;;;;;;5086245;28;20094;-81
2024/03/13 13:00:21;;;;;;;15.55;8.55;;;13.60;97.00;;;;;;5084403;28;20048;-80
2024/03/13 13:02:50;;;;;;;13.38;6.78;;;13.50;96.50;;;;;;5099647;27;20143;-79
2024/03/13 13:05:19;;;;;;;12.93;5.82;;;13.50;96.50;;;;;;5102074;28;20051;-79
2024/03/13 13:07:51;;;;;;;10.15;5.18;;;13.50;97.40;;;;;;5089974;28;20063;-80
2024/03/13 13:10:21;;;;;;;10.75;6.43;;;13.50;97.20;;;;;;5103430;27;20044;-84
2024/03/13 13:12:51;;;;;;;10.70;4.45;;;13.50;96.90;;;;;;5095263;27;20079;-82
2024/03/13 13:15:19;;;;;;;11.93;5.55;;;13.50;97.70;;;;;;5088223;28;20048;-81
2024/03/13 13:17:49;;;;;;;8.77;5.03;;;13.50;97.80;;;;;;5090291;28;20534;-81
2024/03/13 13:20:18;;;;;;;12.90;6.35;;;13.50;97.40;;;;;;5087016;28;20499;-81
2024/03/13 13:22:49;;;;;;;8.95;5.00;;;13.50;96.90;;;;;;5097854;27;20508;-83